Time;durP1;ratioP1;P1;durP2;ratioP2;P2;SDS_P1;SDS_P2;PMS_P1;PMS_P2;Temp;Humidity;BMP_temperature;BMP_pressure;BME280_temperature;BME280_humidity;BME280_pressure;Samples;Min_cycle;Max_cycle;Signal;HPM_P1;HPM_P2
2023/01/30 00:00:52;;;;;;;16.70;16.20;;;21.60;43.20;;;;;;5071755;28;20957;-64
2023/01/30 00:03:21;;;;;;;16.27;15.77;;;21.60;43.20;;;;;;5073385;28;20488;-65
2023/01/30 00:05:48;;;;;;;16.20;15.70;;;21.60;43.20;;;;;;5073463;28;20446;-65
2023/01/30 00:08:15;;;;;;;16.37;15.87;;;21.60;43.20;;;;;;5073271;28;20550;-64
2023/01/30 00:10:43;;;;;;;15.93;15.43;;;21.60;43.20;;;;;;5073123;28;20797;-64
2023/01/30 00:13:10;;;;;;;16.20;15.70;;;21.50;43.10;;;;;;5073366;28;20925;-64
2023/01/30 00:15:37;;;;;;;15.47;14.90;;;21.60;43.20;;;;;;5073245;28;20454;-64
2023/01/30 00:18:04;;;;;;;16.20;15.67;;;21.60;43.20;;;;;;5071333;28;20481;-64
2023/01/30 00:20:33;;;;;;;16.60;16.00;;;21.60;43.20;;;;;;5073103;28;20453;-65
2023/01/30 00:23:00;;;;;;;15.80;15.30;;;21.60;43.20;;;;;;5072053;28;20482;-63
2023/01/30 00:25:27;;;;;;;16.00;15.50;;;21.60;43.20;;;;;;5053058;28;20452;-64
2023/01/30 00:27:55;;;;;;;16.23;15.73;;;21.50;43.10;;;;;;5052937;28;21017;-65
2023/01/30 00:30:22;;;;;;;16.20;15.70;;;21.50;43.20;;;;;;5052731;28;20447;-65
2023/01/30 00:32:54;;;;;;;15.90;15.40;;;21.50;43.20;;;;;;5053020;28;20442;-64
2023/01/30 00:35:21;;;;;;;15.80;15.30;;;21.50;43.20;;;;;;5053970;28;20459;-63
2023/01/30 00:37:49;;;;;;;16.13;15.53;;;21.50;43.20;;;;;;5052835;28;20470;-64
2023/01/30 00:40:16;;;;;;;16.10;15.60;;;21.50;43.20;;;;;;5052708;28;20475;-63
2023/01/30 00:48:11;;;;;;;16.17;15.67;;;21.50;43.30;;;;;;5052675;28;20955;-64
2023/01/30 00:50:42;;;;;;;16.43;15.93;;;21.50;43.30;;;;;;5053465;28;20452;-64
2023/01/30 00:53:11;;;;;;;15.90;15.40;;;21.50;43.30;;;;;;5052600;28;20444;-64
2023/01/30 00:55:38;;;;;;;15.47;15.03;;;21.50;43.30;;;;;;5052518;28;20448;-64
2023/01/30 00:58:05;;;;;;;16.50;16.00;;;21.50;43.40;;;;;;5052424;28;20830;-63
2023/01/30 01:00:33;;;;;;;15.87;15.37;;;21.50;44.00;;;;;;5067263;28;20450;-62
2023/01/30 01:03:00;;;;;;;15.93;15.43;;;21.50;43.50;;;;;;5061888;28;20479;-63
2023/01/30 01:05:27;;;;;;;16.50;16.00;;;21.50;43.40;;;;;;5052259;28;20526;-63
2023/01/30 01:07:54;;;;;;;15.63;15.13;;;21.40;43.40;;;;;;5052187;28;20466;-64
2023/01/30 01:10:23;;;;;;;15.70;15.20;;;21.50;43.50;;;;;;5051977;28;20808;-64
2023/01/30 01:12:52;;;;;;;16.47;15.97;;;21.40;43.40;;;;;;5052256;28;20448;-64
2023/01/30 01:15:20;;;;;;;16.50;16.00;;;21.50;43.50;;;;;;5052121;28;20444;-62
2023/01/30 01:17:47;;;;;;;16.00;15.47;;;21.40;43.40;;;;;;5053140;28;20468;-64
2023/01/30 01:20:14;;;;;;;16.40;15.80;;;21.40;43.40;;;;;;5051921;28;20535;-63
2023/01/30 01:22:40;;;;;;;15.90;15.40;;;21.40;43.40;;;;;;5052009;28;20490;-64
2023/01/30 01:25:09;;;;;;;15.80;15.30;;;21.40;43.40;;;;;;5051979;28;20444;-63
2023/01/30 01:27:38;;;;;;;15.60;15.10;;;21.40;43.40;;;;;;5051846;28;20467;-64
2023/01/30 01:30:06;;;;;;;15.83;15.33;;;21.40;43.40;;;;;;5051807;28;20444;-64
2023/01/30 01:32:33;;;;;;;15.60;15.00;;;21.40;43.40;;;;;;5051920;28;20445;-64
2023/01/30 01:35:00;;;;;;;16.10;15.50;;;21.40;43.40;;;;;;5052984;28;20512;-64
2023/01/30 01:37:27;;;;;;;15.83;15.33;;;21.40;43.40;;;;;;5051617;28;20546;-64
2023/01/30 01:42:38;;;;;;;15.50;15.10;;;21.40;43.40;;;;;;5039504;28;20480;-64
2023/01/30 01:45:16;;;;;;;15.53;15.03;;;21.40;43.40;;;;;;5051730;28;20443;-63
2023/01/30 01:47:48;;;;;;;15.93;15.40;;;21.40;43.40;;;;;;5051647;28;20464;-64
2023/01/30 01:50:19;;;;;;;15.73;15.23;;;21.30;43.40;;;;;;5052649;28;20547;-61
2023/01/30 01:52:48;;;;;;;16.13;15.63;;;21.30;43.90;;;;;;5051566;28;20437;-63
2023/01/30 01:55:16;;;;;;;17.10;16.50;;;21.30;43.40;;;;;;5051570;28;20539;-64
2023/01/30 01:57:49;;;;;;;15.93;15.43;;;21.30;43.40;;;;;;5051540;28;20508;-64
2023/01/30 02:00:17;;;;;;;15.60;15.13;;;21.30;43.30;;;;;;5051397;28;20440;-64
2023/01/30 02:02:51;;;;;;;15.87;15.37;;;21.30;43.40;;;;;;5051530;28;20483;-61
2023/01/30 02:05:19;;;;;;;15.90;15.40;;;21.30;43.40;;;;;;5051577;28;20452;-64
2023/01/30 02:07:50;;;;;;;16.70;16.10;;;21.30;43.40;;;;;;5062616;28;20502;-63
2023/01/30 02:10:22;;;;;;;16.40;15.90;;;21.40;43.50;;;;;;5071441;28;20829;-64
2023/01/30 02:12:51;;;;;;;16.00;15.50;;;21.30;43.50;;;;;;5071635;28;20435;-64
2023/01/30 02:15:19;;;;;;;15.80;15.30;;;21.30;43.50;;;;;;5066550;28;20448;-64
2023/01/30 02:17:46;;;;;;;15.60;15.10;;;21.30;43.60;;;;;;5051249;28;20476;-64
2023/01/30 02:20:22;;;;;;;15.30;14.90;;;21.30;43.50;;;;;;5051253;28;20608;-64
2023/01/30 02:23:21;;;;;;;15.80;15.30;;;21.30;43.60;;;;;;5062278;28;20475;-63
2023/01/30 02:26:28;;;;;;;15.30;14.80;;;21.30;43.60;;;;;;5030953;28;20968;-64
2023/01/30 02:29:30;;;;;;;15.83;15.23;;;21.30;43.60;;;;;;5013739;28;20482;-64
2023/01/30 02:32:07;;;;;;;15.40;14.90;;;21.30;43.60;;;;;;5018511;28;20440;-64
2023/01/30 02:34:43;;;;;;;16.03;15.43;;;21.30;43.60;;;;;;5031363;28;20441;-63
2023/01/30 02:37:19;;;;;;;15.10;14.70;;;21.30;43.70;;;;;;5056313;28;20545;-64
2023/01/30 02:40:00;;;;;;;15.50;15.00;;;21.30;43.70;;;;;;5071115;28;20534;-64
2023/01/30 02:42:37;;;;;;;15.70;15.20;;;21.30;43.80;;;;;;5071339;28;20489;-64
2023/01/30 02:45:12;;;;;;;16.13;15.60;;;21.20;43.70;;;;;;5072111;28;20454;-62
2023/01/30 02:47:47;;;;;;;15.80;15.30;;;21.20;43.70;;;;;;5069467;28;20477;-63
2023/01/30 02:50:19;;;;;;;15.63;15.13;;;21.20;43.70;;;;;;5054375;28;20450;-64
2023/01/30 02:52:47;;;;;;;16.30;15.80;;;21.20;43.70;;;;;;5051147;28;20798;-64
2023/01/30 02:55:19;;;;;;;15.20;14.80;;;21.20;43.70;;;;;;5052761;28;20451;-64
2023/01/30 02:57:46;;;;;;;15.20;14.80;;;21.20;43.70;;;;;;5051203;28;20482;-65
2023/01/30 03:00:16;;;;;;;16.03;15.53;;;21.20;43.70;;;;;;5050942;28;20531;-63
2023/01/30 03:03:09;;;;;;;15.77;15.27;;;21.20;43.70;;;;;;5059249;28;20500;-64
2023/01/30 03:05:57;;;;;;;15.10;14.70;;;21.20;43.70;;;;;;5072877;28;20486;-63
2023/01/30 03:08:31;;;;;;;15.70;15.20;;;21.20;43.70;;;;;;5074749;28;20459;-65
2023/01/30 03:11:01;;;;;;;16.10;15.60;;;21.20;43.70;;;;;;5074676;28;20453;-64
2023/01/30 03:13:42;;;;;;;15.50;15.00;;;21.20;43.70;;;;;;5075252;28;20929;-64
2023/01/30 03:16:13;;;;;;;15.77;15.27;;;21.20;43.70;;;;;;5074655;28;20442;-65
2023/01/30 03:18:42;;;;;;;15.10;14.70;;;21.20;43.70;;;;;;5073106;28;20471;-64
2023/01/30 03:21:09;;;;;;;16.10;15.60;;;21.20;43.70;;;;;;5069749;28;20448;-64
2023/01/30 03:23:36;;;;;;;15.83;15.33;;;21.20;43.70;;;;;;5060023;28;20475;-64
2023/01/30 03:26:05;;;;;;;15.90;15.40;;;21.20;43.70;;;;;;5074603;28;20539;-65
2023/01/30 03:28:34;;;;;;;15.93;15.43;;;21.20;43.70;;;;;;5075995;28;20826;-63
2023/01/30 03:31:00;;;;;;;15.10;14.70;;;21.20;43.70;;;;;;5076895;28;20439;-63
2023/01/30 03:33:27;;;;;;;15.40;14.90;;;21.20;43.70;;;;;;5090160;28;20475;-64
2023/01/30 03:35:56;;;;;;;14.90;14.50;;;21.20;43.60;;;;;;5095623;28;20443;-63
2023/01/30 03:38:22;;;;;;;15.23;14.73;;;21.20;43.60;;;;;;5097309;28;20479;-64
2023/01/30 03:40:49;;;;;;;15.57;15.07;;;21.20;43.60;;;;;;5097184;28;20486;-63
2023/01/30 03:43:16;;;;;;;15.67;15.17;;;21.20;43.60;;;;;;5097140;28;20523;-64
2023/01/30 03:45:43;;;;;;;15.77;15.27;;;21.20;43.60;;;;;;5078268;28;20447;-64
2023/01/30 03:48:10;;;;;;;15.50;15.00;;;21.20;43.60;;;;;;5073943;28;20554;-63
2023/01/30 03:50:36;;;;;;;15.90;15.33;;;21.20;43.60;;;;;;5073713;28;20877;-64
2023/01/30 03:53:05;;;;;;;16.10;15.60;;;21.20;43.60;;;;;;5059279;28;20443;-64
2023/01/30 03:55:31;;;;;;;15.60;15.20;;;21.20;43.70;;;;;;5053790;28;20448;-63
2023/01/30 03:57:58;;;;;;;16.00;15.50;;;21.20;43.70;;;;;;5053510;28;20547;-63
2023/01/30 04:00:25;;;;;;;15.40;14.90;;;21.20;43.70;;;;;;5070780;28;20447;-62
2023/01/30 04:02:53;;;;;;;16.33;15.80;;;21.20;43.70;;;;;;5073618;28;20487;-63
2023/01/30 04:05:20;;;;;;;16.10;15.50;;;21.20;43.70;;;;;;5073401;28;20486;-63
2023/01/30 04:07:47;;;;;;;15.80;15.30;;;21.10;43.60;;;;;;5073455;28;20554;-64
2023/01/30 04:10:18;;;;;;;16.43;15.73;;;21.20;43.80;;;;;;5073268;28;20539;-63
2023/01/30 04:12:45;;;;;;;16.20;15.70;;;21.20;43.70;;;;;;5071305;28;20447;-63
2023/01/30 04:15:12;;;;;;;16.57;15.90;;;21.20;43.60;;;;;;5053386;28;20452;-62
2023/01/30 04:17:39;;;;;;;15.90;15.40;;;21.30;43.60;;;;;;5051984;28;20480;-63
2023/01/30 04:20:07;;;;;;;15.87;15.37;;;21.30;43.70;;;;;;5052918;28;20446;-64
2023/01/30 04:22:33;;;;;;;16.00;15.50;;;21.30;43.70;;;;;;5066805;28;20446;-64
2023/01/30 04:25:00;;;;;;;15.77;15.27;;;21.30;43.70;;;;;;5065049;28;21211;-64
2023/01/30 04:27:28;;;;;;;15.87;15.37;;;21.30;43.70;;;;;;5057235;28;20463;-64
2023/01/30 04:29:55;;;;;;;16.03;15.53;;;21.30;43.60;;;;;;5072894;28;20474;-64
2023/01/30 04:32:22;;;;;;;16.37;15.87;;;21.30;43.60;;;;;;5073028;28;20505;-64
2023/01/30 04:34:49;;;;;;;16.73;16.23;;;21.40;43.70;;;;;;5072800;28;20531;-64
2023/01/30 04:37:16;;;;;;;15.90;15.50;;;21.40;43.70;;;;;;5072946;28;20466;-63
2023/01/30 04:39:42;;;;;;;16.50;15.97;;;21.40;43.70;;;;;;5060616;28;20552;-64
2023/01/30 04:42:09;;;;;;;16.43;15.90;;;21.40;43.70;;;;;;5052721;28;20440;-64
2023/01/30 04:44:37;;;;;;;16.57;16.07;;;21.40;43.80;;;;;;5052711;28;20916;-64
2023/01/30 04:47:04;;;;;;;16.23;15.73;;;21.40;43.80;;;;;;5052735;28;22212;-63
2023/01/30 04:49:31;;;;;;;16.33;15.83;;;21.40;43.70;;;;;;5052424;28;20528;-63
2023/01/30 04:51:58;;;;;;;16.83;16.30;;;21.40;43.70;;;;;;5052627;28;20448;-64
2023/01/30 04:54:25;;;;;;;16.70;16.20;;;21.40;43.70;;;;;;5052544;28;20783;-64
2023/01/30 04:56:51;;;;;;;17.03;16.50;;;21.40;44.30;;;;;;5053507;28;20450;-63
2023/01/30 04:59:18;;;;;;;17.07;16.57;;;21.40;43.70;;;;;;5066346;28;20448;-63
2023/01/30 05:01:46;;;;;;;17.47;16.97;;;21.50;43.80;;;;;;5072247;28;20530;-64
2023/01/30 05:04:13;;;;;;;17.50;16.93;;;21.50;43.90;;;;;;5073811;28;20490;-63
2023/01/30 05:06:40;;;;;;;18.03;17.43;;;21.50;43.90;;;;;;5072207;28;21040;-63
2023/01/30 05:09:07;;;;;;;17.23;16.73;;;21.50;43.80;;;;;;5072065;28;20551;-63
2023/01/30 05:11:34;;;;;;;17.27;16.77;;;21.50;43.80;;;;;;5070483;28;20542;-63
2023/01/30 05:14:00;;;;;;;17.30;16.80;;;21.50;43.80;;;;;;5054578;28;20976;-63
2023/01/30 05:16:28;;;;;;;18.20;17.60;;;21.50;43.80;;;;;;5052169;28;20859;-64
2023/01/30 05:18:56;;;;;;;17.27;16.77;;;21.50;43.80;;;;;;5059791;28;20482;-64
2023/01/30 05:21:26;;;;;;;17.77;17.17;;;21.50;43.80;;;;;;5052150;28;20878;-64
2023/01/30 05:23:54;;;;;;;18.53;17.83;;;21.50;43.90;;;;;;5051978;28;20861;-64
2023/01/30 05:26:21;;;;;;;18.20;17.60;;;21.50;43.80;;;;;;5052258;28;20830;-63
2023/01/30 05:28:52;;;;;;;18.07;17.47;;;21.50;43.80;;;;;;5056481;28;20474;-64
2023/01/30 05:31:18;;;;;;;17.13;16.63;;;21.50;43.80;;;;;;5071911;28;20459;-63
2023/01/30 05:33:48;;;;;;;18.13;17.53;;;21.50;43.70;;;;;;5071904;28;20522;-64
2023/01/30 05:36:18;;;;;;;18.27;17.67;;;21.50;43.70;;;;;;5071878;28;20458;-63
2023/01/30 05:38:46;;;;;;;17.97;17.37;;;21.50;43.80;;;;;;5053007;28;20478;-62
2023/01/30 05:41:15;;;;;;;18.10;17.50;;;21.50;43.70;;;;;;5051775;28;20475;-62
2023/01/30 05:43:42;;;;;;;18.10;17.50;;;21.60;43.80;;;;;;5051604;28;20843;-64
2023/01/30 05:46:11;;;;;;;18.63;17.93;;;21.60;43.70;;;;;;5052774;28;20445;-64
2023/01/30 05:48:38;;;;;;;19.03;18.30;;;21.60;43.80;;;;;;5051653;28;20559;-63
2023/01/30 05:51:05;;;;;;;18.57;17.83;;;21.60;43.90;;;;;;5051528;28;21001;-62
2023/01/30 05:53:34;;;;;;;19.40;18.30;;;21.70;45.70;;;;;;5055045;28;20829;-61
2023/01/30 05:56:03;;;;;;;20.03;18.83;;;21.70;46.30;;;;;;5069829;28;20455;-61
2023/01/30 05:58:31;;;;;;;20.57;19.27;;;21.70;45.80;;;;;;5071570;28;20469;-61
2023/01/30 06:01:01;;;;;;;20.20;18.70;;;21.80;45.80;;;;;;5071418;28;20447;-61
2023/01/30 06:03:29;;;;;;;22.17;20.80;;;21.80;45.80;;;;;;5071208;28;20477;-63
2023/01/30 06:05:56;;;;;;;20.87;19.60;;;21.80;45.70;;;;;;5071609;28;20439;-62
2023/01/30 06:08:23;;;;;;;20.40;19.30;;;21.80;45.80;;;;;;5071452;28;20455;-61
2023/01/30 06:10:51;;;;;;;20.60;19.53;;;21.80;45.70;;;;;;5071311;28;20443;-61
2023/01/30 06:13:18;;;;;;;20.77;19.67;;;21.80;45.70;;;;;;5071538;28;20525;-61
2023/01/30 06:15:45;;;;;;;21.17;19.80;;;21.90;45.80;;;;;;5071334;28;20504;-60
2023/01/30 06:18:12;;;;;;;20.60;19.40;;;21.90;45.80;;;;;;5071217;28;20471;-60
2023/01/30 06:20:39;;;;;;;20.83;19.43;;;21.90;45.70;;;;;;5071258;28;20443;-60
2023/01/30 06:23:05;;;;;;;20.83;19.30;;;21.90;45.80;;;;;;5071380;28;20525;-61
2023/01/30 06:25:32;;;;;;;20.20;19.20;;;22.00;45.80;;;;;;5071235;28;20938;-61
2023/01/30 06:28:00;;;;;;;19.57;18.50;;;22.00;45.70;;;;;;5071259;28;20558;-61
2023/01/30 06:30:27;;;;;;;20.97;19.20;;;22.00;45.70;;;;;;5071151;28;20539;-60
2023/01/30 06:32:54;;;;;;;19.90;18.53;;;22.00;45.60;;;;;;5071254;28;20465;-61
2023/01/30 06:35:21;;;;;;;20.93;19.63;;;22.00;45.50;;;;;;5071301;28;20530;-62
2023/01/30 06:37:48;;;;;;;19.87;18.77;;;22.00;45.50;;;;;;5071155;28;20980;-61
2023/01/30 06:40:15;;;;;;;19.30;18.30;;;22.00;45.40;;;;;;5072125;28;20533;-61
2023/01/30 06:42:45;;;;;;;19.43;18.50;;;22.00;45.40;;;;;;5074958;28;20447;-62
2023/01/30 06:45:15;;;;;;;19.00;18.00;;;22.10;45.50;;;;;;5074935;28;20483;-60
2023/01/30 06:47:46;;;;;;;20.13;19.13;;;22.10;45.50;;;;;;5074983;28;20463;-61
2023/01/30 06:50:13;;;;;;;19.00;18.20;;;22.10;45.50;;;;;;5074746;28;20450;-61
2023/01/30 06:52:43;;;;;;;19.73;18.60;;;22.10;45.40;;;;;;5074807;28;20534;-62
2023/01/30 06:55:12;;;;;;;19.60;18.50;;;22.10;45.30;;;;;;5074759;28;20439;-62
2023/01/30 06:57:39;;;;;;;21.20;20.07;;;22.10;45.30;;;;;;5074922;28;20954;-62
2023/01/30 07:00:07;;;;;;;18.63;17.80;;;22.10;45.20;;;;;;5074528;28;20439;-61
2023/01/30 07:02:36;;;;;;;18.63;17.87;;;22.10;45.20;;;;;;5074725;28;20823;-60
2023/01/30 07:05:03;;;;;;;18.97;18.17;;;22.10;45.20;;;;;;5074553;28;20844;-60
2023/01/30 07:07:30;;;;;;;19.93;18.77;;;22.10;45.10;;;;;;5074473;28;20976;-61
2023/01/30 07:09:57;;;;;;;19.90;18.80;;;22.10;45.10;;;;;;5074309;28;20447;-61
2023/01/30 07:12:25;;;;;;;19.10;18.30;;;22.20;45.20;;;;;;5074613;28;20443;-61
2023/01/30 07:14:52;;;;;;;18.43;17.43;;;22.20;45.20;;;;;;5074409;28;20439;-61
2023/01/30 07:17:19;;;;;;;19.20;18.40;;;22.20;45.20;;;;;;5074258;28;20477;-62
2023/01/30 07:19:47;;;;;;;19.60;18.50;;;22.20;45.10;;;;;;5074054;28;20445;-60
2023/01/30 07:22:14;;;;;;;18.90;18.10;;;22.20;45.10;;;;;;5074299;28;20448;-61
2023/01/30 07:24:42;;;;;;;19.37;18.50;;;22.20;45.10;;;;;;5074271;28;20489;-61
2023/01/30 07:27:10;;;;;;;18.80;17.83;;;22.20;45.00;;;;;;5074238;28;20848;-61
2023/01/30 07:29:38;;;;;;;19.00;18.20;;;22.20;45.00;;;;;;5074073;28;20833;-59
2023/01/30 07:32:06;;;;;;;19.13;18.17;;;22.20;45.00;;;;;;5074080;28;20447;-60
2023/01/30 07:34:32;;;;;;;17.90;17.30;;;22.20;45.00;;;;;;5074085;28;20437;-61
2023/01/30 07:37:01;;;;;;;18.80;17.90;;;22.20;45.00;;;;;;5073996;28;20447;-62
2023/01/30 07:39:27;;;;;;;18.47;17.67;;;22.20;45.00;;;;;;5073875;28;20473;-61
2023/01/30 07:41:56;;;;;;;19.17;18.37;;;22.20;44.90;;;;;;5073817;28;20534;-62
2023/01/30 07:44:23;;;;;;;18.90;18.10;;;22.30;45.00;;;;;;5073887;28;20882;-60
2023/01/30 07:46:50;;;;;;;17.97;17.33;;;22.20;45.40;;;;;;5073715;28;20443;-61
2023/01/30 07:49:16;;;;;;;17.80;17.20;;;22.30;44.90;;;;;;5073672;28;20534;-60
2023/01/30 07:51:43;;;;;;;18.87;17.97;;;22.30;44.80;;;;;;5073576;28;20471;-62
2023/01/30 07:54:11;;;;;;;18.63;17.90;;;22.30;44.80;;;;;;5073681;28;20500;-61
2023/01/30 07:56:38;;;;;;;18.73;18.03;;;22.20;44.70;;;;;;5073645;28;20534;-61
2023/01/30 07:59:05;;;;;;;18.27;17.57;;;22.30;44.80;;;;;;5073372;28;20843;-61
2023/01/30 08:01:33;;;;;;;17.67;17.07;;;22.30;44.80;;;;;;5073434;28;20450;-61
2023/01/30 08:04:00;;;;;;;18.53;17.83;;;22.30;44.70;;;;;;5073490;28;20538;-61
2023/01/30 08:06:26;;;;;;;18.70;17.90;;;22.30;44.70;;;;;;5073548;28;20533;-61
2023/01/30 08:08:53;;;;;;;17.90;17.20;;;22.30;45.20;;;;;;5073256;28;20566;-61
2023/01/30 08:11:21;;;;;;;18.37;17.57;;;22.30;44.70;;;;;;5073371;28;20450;-60
2023/01/30 08:13:48;;;;;;;18.70;18.10;;;22.30;44.60;;;;;;5073419;28;20527;-60
2023/01/30 08:16:15;;;;;;;18.20;17.60;;;22.30;44.60;;;;;;5073220;28;20534;-60
2023/01/30 08:18:43;;;;;;;18.33;17.73;;;22.30;44.60;;;;;;5073067;28;20554;-60
2023/01/30 08:21:11;;;;;;;18.80;18.00;;;22.30;44.50;;;;;;5073091;28;20505;-61
2023/01/30 08:23:38;;;;;;;20.07;19.20;;;22.30;44.50;;;;;;5073149;28;20457;-62
2023/01/30 08:26:06;;;;;;;18.00;17.40;;;22.30;44.00;;;;;;5073017;28;20924;-60
2023/01/30 08:28:34;;;;;;;18.33;17.73;;;22.30;44.50;;;;;;5072995;28;20540;-60
2023/01/30 08:31:01;;;;;;;18.47;17.77;;;22.30;44.50;;;;;;5072779;28;20930;-60
2023/01/30 08:33:28;;;;;;;18.20;17.50;;;22.30;44.50;;;;;;5072966;28;21003;-62
2023/01/30 08:35:56;;;;;;;17.80;17.20;;;22.30;44.40;;;;;;5072891;28;20444;-62
2023/01/30 08:38:22;;;;;;;19.00;18.20;;;22.30;44.40;;;;;;5072824;28;20463;-63
2023/01/30 08:40:49;;;;;;;18.50;17.70;;;22.30;44.40;;;;;;5072616;28;20450;-62
2023/01/30 08:43:16;;;;;;;19.30;18.60;;;22.30;44.40;;;;;;5072722;28;20534;-60
2023/01/30 08:45:44;;;;;;;19.00;18.27;;;22.30;44.30;;;;;;5072612;28;20483;-60
2023/01/30 08:48:11;;;;;;;19.13;18.33;;;22.30;44.30;;;;;;5072666;28;20827;-60
2023/01/30 08:50:38;;;;;;;18.60;18.00;;;22.30;44.30;;;;;;5072366;28;20534;-60
2023/01/30 08:53:06;;;;;;;18.43;17.83;;;22.30;44.30;;;;;;5072508;28;20450;-61
2023/01/30 08:55:33;;;;;;;18.10;17.50;;;22.30;44.20;;;;;;5072538;28;20827;-62
2023/01/30 08:58:00;;;;;;;19.00;18.30;;;22.30;44.20;;;;;;5072340;28;20470;-61
2023/01/30 09:00:28;;;;;;;18.93;18.23;;;22.30;44.20;;;;;;5072332;28;20435;-60
2023/01/30 09:02:57;;;;;;;19.00;18.10;;;22.40;44.30;;;;;;5071928;28;20450;-62
2023/01/30 09:05:24;;;;;;;18.10;17.50;;;22.40;44.20;;;;;;5072234;28;20482;-61
2023/01/30 09:07:51;;;;;;;18.70;18.10;;;22.40;44.20;;;;;;5072170;28;20459;-59
2023/01/30 09:10:18;;;;;;;18.40;17.80;;;22.40;44.20;;;;;;5072073;28;20461;-61
2023/01/30 09:12:45;;;;;;;18.77;18.10;;;22.40;44.10;;;;;;5072125;28;20449;-60
2023/01/30 09:15:12;;;;;;;18.93;18.33;;;22.40;44.10;;;;;;5072129;28;20458;-63
2023/01/30 09:17:39;;;;;;;18.60;18.00;;;22.40;44.00;;;;;;5071915;28;20467;-60
2023/01/30 09:20:09;;;;;;;18.37;17.60;;;22.40;44.00;;;;;;5071853;28;20509;-60
2023/01/30 09:22:36;;;;;;;18.90;18.23;;;22.40;44.00;;;;;;5072177;28;20447;-62
2023/01/30 09:25:04;;;;;;;17.80;17.20;;;22.40;44.00;;;;;;5071950;28;20847;-60
2023/01/30 09:27:31;;;;;;;18.57;17.93;;;22.40;44.00;;;;;;5071876;28;20473;-60
2023/01/30 09:29:57;;;;;;;18.30;17.70;;;22.40;43.90;;;;;;5071896;28;20522;-61
2023/01/30 09:32:24;;;;;;;18.30;17.60;;;22.40;43.90;;;;;;5071921;28;20538;-61
2023/01/30 09:34:51;;;;;;;18.03;17.33;;;22.40;43.90;;;;;;5071925;28;20924;-60
2023/01/30 09:37:19;;;;;;;18.90;18.30;;;22.40;43.90;;;;;;5071892;28;20470;-61
2023/01/30 09:39:46;;;;;;;18.30;17.70;;;22.40;43.80;;;;;;5071744;28;20443;-61
2023/01/30 09:42:41;;;;;;;18.73;18.13;;;22.40;43.80;;;;;;5071778;28;20497;-62
2023/01/30 09:45:43;;;;;;;19.33;18.47;;;22.40;43.80;;;;;;5071745;28;20475;-60
2023/01/30 09:48:21;;;;;;;18.83;18.13;;;22.40;43.80;;;;;;5068479;28;20470;-60
2023/01/30 09:51:05;;;;;;;18.57;17.93;;;22.40;43.80;;;;;;5071549;28;21019;-61
2023/01/30 09:53:40;;;;;;;18.17;17.50;;;22.40;43.80;;;;;;5071759;28;20823;-60
2023/01/30 09:56:07;;;;;;;18.33;17.73;;;22.40;43.70;;;;;;5071661;28;20435;-61
2023/01/30 09:58:44;;;;;;;17.87;17.27;;;22.40;43.70;;;;;;5071604;28;20470;-62
2023/01/30 10:01:20;;;;;;;18.67;18.03;;;22.40;43.70;;;;;;5071702;28;20453;-61
2023/01/30 10:03:58;;;;;;;18.10;17.50;;;22.40;43.60;;;;;;5071835;28;20439;-60
2023/01/30 10:06:25;;;;;;;19.07;18.10;;;22.40;43.60;;;;;;5071551;28;20482;-60
2023/01/30 10:08:59;;;;;;;18.20;17.60;;;22.40;43.50;;;;;;5071330;28;20990;-59
2023/01/30 10:11:42;;;;;;;19.13;18.50;;;22.40;43.50;;;;;;5071574;28;20478;-60
2023/01/30 10:14:36;;;;;;;18.33;17.63;;;22.40;43.50;;;;;;5071600;28;20443;-61
2023/01/30 10:17:12;;;;;;;18.10;17.50;;;22.40;43.50;;;;;;5075446;28;20453;-59
2023/01/30 10:19:55;;;;;;;18.00;17.40;;;22.40;43.50;;;;;;5075465;28;20439;-61
2023/01/30 10:22:33;;;;;;;18.57;17.87;;;22.40;43.40;;;;;;5075538;28;20932;-61
2023/01/30 10:25:14;;;;;;;18.63;18.00;;;22.40;43.50;;;;;;5075538;28;20482;-61
2023/01/30 10:27:49;;;;;;;18.57;17.87;;;22.40;43.40;;;;;;5075346;28;20542;-59
2023/01/30 10:30:17;;;;;;;17.90;17.40;;;22.40;43.30;;;;;;5075177;28;20807;-61
2023/01/30 10:32:47;;;;;;;18.30;17.60;;;22.40;43.20;;;;;;5075431;28;20443;-60
2023/01/30 10:35:20;;;;;;;17.97;17.37;;;22.40;43.30;;;;;;5075335;28;20439;-59
2023/01/30 10:37:56;;;;;;;18.00;17.40;;;22.40;43.20;;;;;;5075133;28;20471;-61
2023/01/30 10:40:31;;;;;;;19.27;18.50;;;22.40;43.20;;;;;;5074897;28;20932;-59
2023/01/30 10:43:03;;;;;;;18.27;17.57;;;22.40;43.10;;;;;;5075173;28;20480;-60
2023/01/30 10:45:38;;;;;;;17.83;17.23;;;22.40;43.10;;;;;;5074929;28;20570;-60
2023/01/30 10:48:22;;;;;;;18.30;17.60;;;22.40;43.10;;;;;;5074894;28;20466;-59
2023/01/30 10:50:53;;;;;;;18.67;17.97;;;22.40;43.10;;;;;;5074698;28;20449;-60
2023/01/30 10:53:26;;;;;;;19.33;18.33;;;22.40;43.10;;;;;;5074981;28;20450;-60
2023/01/30 10:56:02;;;;;;;18.20;17.60;;;22.40;43.00;;;;;;5074903;28;20443;-60
2023/01/30 10:58:38;;;;;;;18.10;17.50;;;22.40;43.00;;;;;;5074797;28;20473;-60
2023/01/30 11:01:10;;;;;;;18.70;17.83;;;22.30;42.90;;;;;;5074562;28;20445;-60
2023/01/30 11:03:45;;;;;;;18.17;17.57;;;22.30;42.90;;;;;;5074765;28;20447;-60
2023/01/30 11:06:15;;;;;;;19.00;18.40;;;22.30;42.90;;;;;;5074463;28;20501;-61
2023/01/30 11:08:43;;;;;;;18.33;17.70;;;22.30;42.90;;;;;;5074449;28;20467;-61
2023/01/30 11:11:27;;;;;;;18.40;17.70;;;22.30;42.90;;;;;;5074432;28;20907;-60
2023/01/30 11:14:02;;;;;;;19.03;18.23;;;22.30;42.90;;;;;;5074650;28;20447;-62
2023/01/30 11:16:31;;;;;;;18.77;18.07;;;22.40;43.00;;;;;;5074547;28;21026;-61
2023/01/30 11:19:00;;;;;;;17.60;17.00;;;22.40;42.90;;;;;;5074736;28;20470;-62
2023/01/30 11:21:29;;;;;;;18.20;17.60;;;22.30;42.80;;;;;;5074378;28;20501;-60
2023/01/30 11:23:56;;;;;;;18.50;17.87;;;22.40;42.90;;;;;;5074217;28;20526;-62
2023/01/30 11:26:30;;;;;;;18.20;17.50;;;22.40;42.90;;;;;;5073528;28;21008;-61
2023/01/30 11:28:57;;;;;;;18.67;17.97;;;22.30;42.80;;;;;;5074000;28;20462;-60
2023/01/30 11:31:26;;;;;;;18.43;17.73;;;22.30;42.80;;;;;;5074044;28;20478;-59
2023/01/30 11:34:00;;;;;;;19.10;18.40;;;22.30;42.70;;;;;;5074268;28;20443;-61
2023/01/30 11:36:29;;;;;;;18.83;18.03;;;22.30;42.70;;;;;;5074127;28;20450;-61
2023/01/30 11:38:58;;;;;;;18.23;17.63;;;22.40;42.80;;;;;;5073717;28;20473;-61
2023/01/30 11:41:27;;;;;;;18.53;17.90;;;22.30;42.70;;;;;;5074067;28;20470;-60
2023/01/30 11:44:00;;;;;;;18.00;17.40;;;22.30;42.60;;;;;;5074063;28;20803;-61
2023/01/30 11:46:32;;;;;;;19.00;18.13;;;22.40;42.70;;;;;;5073863;28;20540;-62
2023/01/30 11:49:02;;;;;;;18.50;17.90;;;22.40;42.60;;;;;;5073750;28;20586;-61
2023/01/30 11:51:32;;;;;;;17.90;17.40;;;22.30;42.60;;;;;;5073921;28;20471;-61
2023/01/30 11:54:02;;;;;;;18.80;18.10;;;22.40;42.60;;;;;;5073818;28;20449;-62
2023/01/30 11:56:34;;;;;;;18.80;18.10;;;22.30;42.50;;;;;;5073744;28;20486;-61
2023/01/30 11:59:05;;;;;;;18.90;18.10;;;22.30;42.50;;;;;;5073610;28;20469;-61
2023/01/30 12:01:35;;;;;;;19.00;18.30;;;22.30;42.60;;;;;;5073669;28;20443;-61
2023/01/30 12:04:06;;;;;;;18.27;17.67;;;22.30;42.60;;;;;;5073693;28;20440;-62
2023/01/30 12:06:36;;;;;;;17.87;17.27;;;22.30;42.50;;;;;;5073413;28;20573;-61
2023/01/30 12:09:04;;;;;;;18.10;17.50;;;22.30;42.60;;;;;;5073297;28;20463;-61
2023/01/30 12:11:43;;;;;;;18.37;17.57;;;22.30;42.50;;;;;;5073434;28;20811;-61
2023/01/30 12:14:23;;;;;;;18.23;17.53;;;22.30;42.50;;;;;;5073532;28;20446;-60
2023/01/30 12:16:57;;;;;;;18.30;17.70;;;22.30;42.40;;;;;;5073196;28;20435;-60
2023/01/30 12:19:35;;;;;;;18.57;17.97;;;22.30;42.30;;;;;;5073089;28;20456;-62
2023/01/30 12:22:16;;;;;;;18.20;17.60;;;22.30;42.30;;;;;;5073387;28;20807;-62
2023/01/30 12:24:48;;;;;;;18.40;17.70;;;22.30;42.30;;;;;;5073167;28;20439;-61
2023/01/30 12:27:23;;;;;;;18.97;18.00;;;22.30;42.30;;;;;;5073049;28;20491;-61
2023/01/30 12:29:58;;;;;;;18.10;17.40;;;22.30;42.30;;;;;;5072920;28;20442;-61
2023/01/30 12:32:28;;;;;;;18.40;17.67;;;22.30;42.20;;;;;;5073240;28;21113;-63
2023/01/30 12:34:55;;;;;;;18.50;17.80;;;22.30;42.20;;;;;;5072986;28;20534;-63
2023/01/30 12:37:38;;;;;;;18.07;17.40;;;22.30;42.20;;;;;;5072079;28;20845;-61
2023/01/30 12:40:18;;;;;;;18.60;18.00;;;22.30;42.10;;;;;;5072749;28;20450;-62
2023/01/30 12:43:18;;;;;;;18.43;17.80;;;22.30;42.10;;;;;;5072912;28;20449;-63
2023/01/30 12:45:55;;;;;;;18.90;18.20;;;22.30;42.10;;;;;;5072749;28;20485;-61
2023/01/30 12:48:35;;;;;;;19.20;18.50;;;22.30;42.20;;;;;;5072651;28;20469;-60
2023/01/30 12:51:14;;;;;;;18.50;17.80;;;22.30;42.10;;;;;;5072510;28;20447;-60